sensor_id;sensor_type;location;lat;lon;timestamp;temperature;humidity
74901;DHT22;63461;51.416;6.758;2023-11-18T00:01:50;5.90;99.90
74901;DHT22;63461;51.416;6.758;2023-11-18T00:04:19;6.00;99.90
74901;DHT22;63461;51.416;6.758;2023-11-18T00:06:48;6.00;99.90
74901;DHT22;63461;51.416;6.758;2023-11-18T00:09:14;5.90;99.90
74901;DHT22;63461;51.416;6.758;2023-11-18T00:12:06;6.00;99.90
74901;DHT22;63461;51.416;6.758;2023-11-18T00:14:36;5.90;99.90
74901;DHT22;63461;51.416;6.758;2023-11-18T00:17:02;5.90;99.90
74901;DHT22;63461;51.416;6.758;2023-11-18T00:19:50;5.80;99.90
74901;DHT22;63461;51.416;6.758;2023-11-18T00:22:16;5.80;99.90
74901;DHT22;63461;51.416;6.758;2023-11-18T00:27:28;5.80;99.90
74901;DHT22;63461;51.416;6.758;2023-11-18T00:29:56;5.90;99.90
74901;DHT22;63461;51.416;6.758;2023-11-18T00:32:36;5.80;99.90
74901;DHT22;63461;51.416;6.758;2023-11-18T00:35:02;5.90;99.90
74901;DHT22;63461;51.416;6.758;2023-11-18T00:37:30;5.80;99.90
74901;DHT22;63461;51.416;6.758;2023-11-18T00:41:01;5.90;99.90
74901;DHT22;63461;51.416;6.758;2023-11-18T00:43:30;5.90;99.90
74901;DHT22;63461;51.416;6.758;2023-11-18T00:46:00;6.00;99.90
74901;DHT22;63461;51.416;6.758;2023-11-18T00:48:44;5.90;99.90
74901;DHT22;63461;51.416;6.758;2023-11-18T00:51:22;5.90;99.90
74901;DHT22;63461;51.416;6.758;2023-11-18T00:54:00;6.00;99.90
74901;DHT22;63461;51.416;6.758;2023-11-18T00:57:13;6.10;99.90
74901;DHT22;63461;51.416;6.758;2023-11-18T01:00:00;6.20;99.90
74901;DHT22;63461;51.416;6.758;2023-11-18T01:02:30;6.10;99.90
74901;DHT22;63461;51.416;6.758;2023-11-18T01:05:20;6.10;99.90
74901;DHT22;63461;51.416;6.758;2023-11-18T01:07:57;6.00;99.90
74901;DHT22;63461;51.416;6.758;2023-11-18T01:10:54;6.10;99.90
74901;DHT22;63461;51.416;6.758;2023-11-18T01:13:27;6.10;99.90
74901;DHT22;63461;51.416;6.758;2023-11-18T01:16:20;6.10;99.90
74901;DHT22;63461;51.416;6.758;2023-11-18T01:18:46;6.10;99.90
74901;DHT22;63461;51.416;6.758;2023-11-18T01:21:13;6.10;99.90
74901;DHT22;63461;51.416;6.758;2023-11-18T01:23:41;6.10;99.90
74901;DHT22;63461;51.416;6.758;2023-11-18T01:26:08;6.10;99.90
74901;DHT22;63461;51.416;6.758;2023-11-18T01:28:40;6.10;99.90
74901;DHT22;63461;51.416;6.758;2023-11-18T01:31:22;6.00;99.90
74901;DHT22;63461;51.416;6.758;2023-11-18T01:33:57;6.00;99.90
74901;DHT22;63461;51.416;6.758;2023-11-18T01:36:26;6.00;99.90
74901;DHT22;63461;51.416;6.758;2023-11-18T01:38:53;5.90;99.90
74901;DHT22;63461;51.416;6.758;2023-11-18T01:41:21;5.90;99.90
74901;DHT22;63461;51.416;6.758;2023-11-18T01:43:50;5.90;99.90
74901;DHT22;63461;51.416;6.758;2023-11-18T01:46:22;5.90;99.90
74901;DHT22;63461;51.416;6.758;2023-11-18T01:48:58;5.90;99.90
74901;DHT22;63461;51.416;6.758;2023-11-18T01:51:24;5.80;99.90
74901;DHT22;63461;51.416;6.758;2023-11-18T01:54:13;5.80;99.90
74901;DHT22;63461;51.416;6.758;2023-11-18T01:57:13;5.80;99.90
74901;DHT22;63461;51.416;6.758;2023-11-18T01:59:39;5.80;99.90
74901;DHT22;63461;51.416;6.758;2023-11-18T02:02:06;5.70;99.90
74901;DHT22;63461;51.416;6.758;2023-11-18T02:04:32;5.70;99.90
74901;DHT22;63461;51.416;6.758;2023-11-18T02:07:01;5.80;99.90
74901;DHT22;63461;51.416;6.758;2023-11-18T02:09:34;5.80;99.90
74901;DHT22;63461;51.416;6.758;2023-11-18T02:12:29;5.80;99.90
74901;DHT22;63461;51.416;6.758;2023-11-18T02:14:57;5.90;99.90
74901;DHT22;63461;51.416;6.758;2023-11-18T02:17:33;5.90;99.90
74901;DHT22;63461;51.416;6.758;2023-11-18T02:20:08;5.90;99.90
74901;DHT22;63461;51.416;6.758;2023-11-18T02:22:52;5.90;99.90
74901;DHT22;63461;51.416;6.758;2023-11-18T02:35:41;6.00;99.90
74901;DHT22;63461;51.416;6.758;2023-11-18T02:38:44;5.90;99.90
74901;DHT22;63461;51.416;6.758;2023-11-18T02:41:16;5.90;99.90
74901;DHT22;63461;51.416;6.758;2023-11-18T02:44:20;6.00;99.90
74901;DHT22;63461;51.416;6.758;2023-11-18T02:46:54;6.00;99.90
74901;DHT22;63461;51.416;6.758;2023-11-18T02:49:44;5.90;99.90
74901;DHT22;63461;51.416;6.758;2023-11-18T02:52:13;5.90;99.90
74901;DHT22;63461;51.416;6.758;2023-11-18T02:54:40;6.00;99.90
74901;DHT22;63461;51.416;6.758;2023-11-18T02:57:05;6.00;99.90
74901;DHT22;63461;51.416;6.758;2023-11-18T02:59:42;6.00;99.90
74901;DHT22;63461;51.416;6.758;2023-11-18T03:02:11;5.90;99.90
74901;DHT22;63461;51.416;6.758;2023-11-18T03:04:37;5.90;99.90
74901;DHT22;63461;51.416;6.758;2023-11-18T03:07:03;6.00;99.90
74901;DHT22;63461;51.416;6.758;2023-11-18T03:09:29;6.00;99.90
74901;DHT22;63461;51.416;6.758;2023-11-18T03:11:57;6.00;99.90
74901;DHT22;63461;51.416;6.758;2023-11-18T03:35:39;6.10;99.90
74901;DHT22;63461;51.416;6.758;2023-11-18T03:44:36;6.00;99.90
74901;DHT22;63461;51.416;6.758;2023-11-18T03:50:09;6.10;99.90
74901;DHT22;63461;51.416;6.758;2023-11-18T03:52:38;6.10;99.90
74901;DHT22;63461;51.416;6.758;2023-11-18T03:55:13;6.10;99.90
74901;DHT22;63461;51.416;6.758;2023-11-18T03:57:39;6.10;99.90
74901;DHT22;63461;51.416;6.758;2023-11-18T04:00:06;6.10;99.90
74901;DHT22;63461;51.416;6.758;2023-11-18T04:02:39;6.10;99.90
74901;DHT22;63461;51.416;6.758;2023-11-18T04:05:06;6.10;99.90
74901;DHT22;63461;51.416;6.758;2023-11-18T04:07:34;6.10;99.90
74901;DHT22;63461;51.416;6.758;2023-11-18T04:10:03;6.10;99.90
74901;DHT22;63461;51.416;6.758;2023-11-18T04:12:52;6.10;99.90
74901;DHT22;63461;51.416;6.758;2023-11-18T04:15:35;6.10;99.90
74901;DHT22;63461;51.416;6.758;2023-11-18T04:18:03;6.00;99.90
74901;DHT22;63461;51.416;6.758;2023-11-18T04:20:29;6.00;99.90
74901;DHT22;63461;51.416;6.758;2023-11-18T04:22:55;6.10;99.90
74901;DHT22;63461;51.416;6.758;2023-11-18T04:25:21;6.00;99.90
74901;DHT22;63461;51.416;6.758;2023-11-18T04:27:47;6.00;99.90
74901;DHT22;63461;51.416;6.758;2023-11-18T04:30:28;6.00;99.90
74901;DHT22;63461;51.416;6.758;2023-11-18T04:33:12;5.90;99.90
74901;DHT22;63461;51.416;6.758;2023-11-18T04:35:46;5.90;99.90
74901;DHT22;63461;51.416;6.758;2023-11-18T04:38:40;5.90;99.90
74901;DHT22;63461;51.416;6.758;2023-11-18T04:41:05;6.00;99.90
74901;DHT22;63461;51.416;6.758;2023-11-18T04:47:37;5.90;99.90
74901;DHT22;63461;51.416;6.758;2023-11-18T04:50:14;5.90;99.90
74901;DHT22;63461;51.416;6.758;2023-11-18T04:52:43;5.90;99.90
74901;DHT22;63461;51.416;6.758;2023-11-18T04:55:16;5.90;99.90
74901;DHT22;63461;51.416;6.758;2023-11-18T04:57:42;5.90;99.90
74901;DHT22;63461;51.416;6.758;2023-11-18T05:00:09;5.90;99.90
74901;DHT22;63461;51.416;6.758;2023-11-18T05:03:07;6.00;99.90
74901;DHT22;63461;51.416;6.758;2023-11-18T05:05:37;6.00;99.90
74901;DHT22;63461;51.416;6.758;2023-11-18T05:08:05;5.90;99.90
74901;DHT22;63461;51.416;6.758;2023-11-18T05:10:35;5.90;99.90
74901;DHT22;63461;51.416;6.758;2023-11-18T05:13:03;6.00;99.90
74901;DHT22;63461;51.416;6.758;2023-11-18T05:15:29;6.00;99.90
74901;DHT22;63461;51.416;6.758;2023-11-18T05:17:56;6.00;99.90
74901;DHT22;63461;51.416;6.758;2023-11-18T05:20:25;6.00;99.90
74901;DHT22;63461;51.416;6.758;2023-11-18T05:22:59;5.90;99.90
74901;DHT22;63461;51.416;6.758;2023-11-18T05:25:49;6.00;99.90
74901;DHT22;63461;51.416;6.758;2023-11-18T05:28:21;6.00;99.90
74901;DHT22;63461;51.416;6.758;2023-11-18T05:31:02;6.00;99.90
74901;DHT22;63461;51.416;6.758;2023-11-18T05:33:49;6.00;99.90
74901;DHT22;63461;51.416;6.758;2023-11-18T05:36:29;6.00;99.90
74901;DHT22;63461;51.416;6.758;2023-11-18T05:39:22;6.00;99.90
74901;DHT22;63461;51.416;6.758;2023-11-18T05:45:30;6.10;99.90
74901;DHT22;63461;51.416;6.758;2023-11-18T05:48:22;6.10;99.90
74901;DHT22;63461;51.416;6.758;2023-11-18T05:51:12;6.10;99.90
74901;DHT22;63461;51.416;6.758;2023-11-18T05:53:41;6.00;99.90
74901;DHT22;63461;51.416;6.758;2023-11-18T05:56:36;6.20;99.90
74901;DHT22;63461;51.416;6.758;2023-11-18T05:59:16;6.10;99.90
74901;DHT22;63461;51.416;6.758;2023-11-18T06:01:44;6.20;99.90
74901;DHT22;63461;51.416;6.758;2023-11-18T06:04:22;6.20;99.90
74901;DHT22;63461;51.416;6.758;2023-11-18T06:07:20;6.20;99.90
74901;DHT22;63461;51.416;6.758;2023-11-18T06:09:56;6.20;99.90
74901;DHT22;63461;51.416;6.758;2023-11-18T06:12:40;6.20;99.90
74901;DHT22;63461;51.416;6.758;2023-11-18T06:15:51;6.20;99.90
74901;DHT22;63461;51.416;6.758;2023-11-18T06:18:55;6.20;99.90
74901;DHT22;63461;51.416;6.758;2023-11-18T06:21:36;6.20;99.90
74901;DHT22;63461;51.416;6.758;2023-11-18T06:24:03;6.30;99.90
74901;DHT22;63461;51.416;6.758;2023-11-18T06:26:44;6.30;99.90
74901;DHT22;63461;51.416;6.758;2023-11-18T06:29:13;6.30;99.90
74901;DHT22;63461;51.416;6.758;2023-11-18T06:31:40;6.30;99.90
74901;DHT22;63461;51.416;6.758;2023-11-18T06:34:05;6.30;99.90
74901;DHT22;63461;51.416;6.758;2023-11-18T06:36:31;6.30;99.90
74901;DHT22;63461;51.416;6.758;2023-11-18T06:38:57;6.30;99.90
74901;DHT22;63461;51.416;6.758;2023-11-18T06:41:24;6.20;99.90
74901;DHT22;63461;51.416;6.758;2023-11-18T06:43:59;6.30;99.90
74901;DHT22;63461;51.416;6.758;2023-11-18T06:46:35;6.30;99.90
74901;DHT22;63461;51.416;6.758;2023-11-18T06:49:10;6.30;99.90
74901;DHT22;63461;51.416;6.758;2023-11-18T06:51:42;6.30;99.90
74901;DHT22;63461;51.416;6.758;2023-11-18T06:54:08;6.30;99.90
74901;DHT22;63461;51.416;6.758;2023-11-18T06:56:41;6.40;99.90
74901;DHT22;63461;51.416;6.758;2023-11-18T06:59:13;6.30;99.90
74901;DHT22;63461;51.416;6.758;2023-11-18T07:01:42;6.40;99.90
74901;DHT22;63461;51.416;6.758;2023-11-18T07:04:14;6.50;99.90
74901;DHT22;63461;51.416;6.758;2023-11-18T07:06:43;6.50;99.90
74901;DHT22;63461;51.416;6.758;2023-11-18T07:09:09;6.40;99.90
74901;DHT22;63461;51.416;6.758;2023-11-18T07:11:40;6.50;99.90
74901;DHT22;63461;51.416;6.758;2023-11-18T07:14:22;6.50;99.90
74901;DHT22;63461;51.416;6.758;2023-11-18T07:28:39;6.60;99.90
74901;DHT22;63461;51.416;6.758;2023-11-18T07:31:18;6.60;99.90
74901;DHT22;63461;51.416;6.758;2023-11-18T07:34:43;6.60;99.90
74901;DHT22;63461;51.416;6.758;2023-11-18T07:37:44;6.60;99.90
74901;DHT22;63461;51.416;6.758;2023-11-18T07:40:44;6.70;99.90
74901;DHT22;63461;51.416;6.758;2023-11-18T07:43:12;6.70;99.90
74901;DHT22;63461;51.416;6.758;2023-11-18T07:45:44;6.70;99.90
74901;DHT22;63461;51.416;6.758;2023-11-18T07:48:43;6.70;99.90
74901;DHT22;63461;51.416;6.758;2023-11-18T07:51:14;6.70;99.90
74901;DHT22;63461;51.416;6.758;2023-11-18T07:53:40;6.70;99.90
74901;DHT22;63461;51.416;6.758;2023-11-18T07:56:08;6.80;99.90
74901;DHT22;63461;51.416;6.758;2023-11-18T07:58:44;6.80;99.90
74901;DHT22;63461;51.416;6.758;2023-11-18T08:01:15;6.80;99.90
74901;DHT22;63461;51.416;6.758;2023-11-18T08:03:59;6.90;99.90
74901;DHT22;63461;51.416;6.758;2023-11-18T08:06:28;6.90;99.90
74901;DHT22;63461;51.416;6.758;2023-11-18T08:08:57;6.90;99.90
74901;DHT22;63461;51.416;6.758;2023-11-18T08:11:34;6.90;99.90
74901;DHT22;63461;51.416;6.758;2023-11-18T08:20:22;7.00;99.90
74901;DHT22;63461;51.416;6.758;2023-11-18T08:22:50;7.00;99.90
74901;DHT22;63461;51.416;6.758;2023-11-18T08:29:06;7.00;99.90
74901;DHT22;63461;51.416;6.758;2023-11-18T08:56:39;7.20;99.90
74901;DHT22;63461;51.416;6.758;2023-11-18T09:02:50;7.30;99.90
74901;DHT22;63461;51.416;6.758;2023-11-18T09:09:28;7.20;99.90
74901;DHT22;63461;51.416;6.758;2023-11-18T09:11:55;7.40;99.90
74901;DHT22;63461;51.416;6.758;2023-11-18T09:14:23;7.40;99.90
74901;DHT22;63461;51.416;6.758;2023-11-18T09:16:53;7.50;99.90
74901;DHT22;63461;51.416;6.758;2023-11-18T09:19:25;7.50;99.90
74901;DHT22;63461;51.416;6.758;2023-11-18T09:21:51;7.40;99.90
74901;DHT22;63461;51.416;6.758;2023-11-18T09:24:20;7.40;99.90
74901;DHT22;63461;51.416;6.758;2023-11-18T09:26:50;7.50;99.90
74901;DHT22;63461;51.416;6.758;2023-11-18T09:29:17;7.50;99.90
74901;DHT22;63461;51.416;6.758;2023-11-18T09:31:50;7.50;99.90
74901;DHT22;63461;51.416;6.758;2023-11-18T09:34:18;7.50;99.90
74901;DHT22;63461;51.416;6.758;2023-11-18T09:36:55;7.60;99.90
74901;DHT22;63461;51.416;6.758;2023-11-18T09:39:21;7.70;99.90
74901;DHT22;63461;51.416;6.758;2023-11-18T09:42:05;7.60;99.90
74901;DHT22;63461;51.416;6.758;2023-11-18T09:44:37;7.60;99.90
74901;DHT22;63461;51.416;6.758;2023-11-18T09:47:07;7.60;99.90
74901;DHT22;63461;51.416;6.758;2023-11-18T09:49:40;7.70;99.90
74901;DHT22;63461;51.416;6.758;2023-11-18T09:52:17;7.60;99.90
74901;DHT22;63461;51.416;6.758;2023-11-18T09:57:40;7.70;99.90
74901;DHT22;63461;51.416;6.758;2023-11-18T10:00:11;7.70;99.90
74901;DHT22;63461;51.416;6.758;2023-11-18T10:02:50;7.70;99.90
74901;DHT22;63461;51.416;6.758;2023-11-18T10:05:17;7.80;99.90
74901;DHT22;63461;51.416;6.758;2023-11-18T10:07:49;7.90;99.90
74901;DHT22;63461;51.416;6.758;2023-11-18T10:10:16;7.90;99.90
74901;DHT22;63461;51.416;6.758;2023-11-18T10:12:46;8.00;99.90
74901;DHT22;63461;51.416;6.758;2023-11-18T10:15:19;8.00;99.90
74901;DHT22;63461;51.416;6.758;2023-11-18T10:17:50;8.00;99.90
74901;DHT22;63461;51.416;6.758;2023-11-18T10:23:10;8.10;99.90
74901;DHT22;63461;51.416;6.758;2023-11-18T10:25:39;8.10;99.90
74901;DHT22;63461;51.416;6.758;2023-11-18T10:28:20;8.00;99.90
74901;DHT22;63461;51.416;6.758;2023-11-18T10:30:56;8.20;99.90
74901;DHT22;63461;51.416;6.758;2023-11-18T10:33:27;8.30;99.90
74901;DHT22;63461;51.416;6.758;2023-11-18T10:36:24;8.30;99.90
74901;DHT22;63461;51.416;6.758;2023-11-18T10:39:33;8.40;99.90
74901;DHT22;63461;51.416;6.758;2023-11-18T10:42:01;8.30;99.90
74901;DHT22;63461;51.416;6.758;2023-11-18T10:44:30;8.30;99.90
74901;DHT22;63461;51.416;6.758;2023-11-18T10:46:56;8.30;99.90
74901;DHT22;63461;51.416;6.758;2023-11-18T10:49:31;8.30;99.90
74901;DHT22;63461;51.416;6.758;2023-11-18T10:52:02;8.30;99.90
74901;DHT22;63461;51.416;6.758;2023-11-18T10:54:33;8.30;99.90
74901;DHT22;63461;51.416;6.758;2023-11-18T10:57:01;8.30;99.90
74901;DHT22;63461;51.416;6.758;2023-11-18T10:59:35;8.30;99.90
74901;DHT22;63461;51.416;6.758;2023-11-18T11:02:18;8.30;99.90
74901;DHT22;63461;51.416;6.758;2023-11-18T11:04:45;8.40;99.90
74901;DHT22;63461;51.416;6.758;2023-11-18T11:07:12;8.30;99.90
74901;DHT22;63461;51.416;6.758;2023-11-18T11:09:39;8.30;99.90
74901;DHT22;63461;51.416;6.758;2023-11-18T11:12:13;8.40;99.90
74901;DHT22;63461;51.416;6.758;2023-11-18T11:15:01;8.40;99.90
74901;DHT22;63461;51.416;6.758;2023-11-18T11:17:34;8.40;99.90
74901;DHT22;63461;51.416;6.758;2023-11-18T11:20:14;8.40;99.90
74901;DHT22;63461;51.416;6.758;2023-11-18T11:29:07;8.40;99.90
74901;DHT22;63461;51.416;6.758;2023-11-18T11:35:33;8.40;99.90
74901;DHT22;63461;51.416;6.758;2023-11-18T11:38:03;8.40;99.90
74901;DHT22;63461;51.416;6.758;2023-11-18T11:40:38;8.40;99.90
74901;DHT22;63461;51.416;6.758;2023-11-18T11:43:06;8.50;99.90
74901;DHT22;63461;51.416;6.758;2023-11-18T11:45:35;8.60;99.90
74901;DHT22;63461;51.416;6.758;2023-11-18T11:48:03;8.60;99.90
74901;DHT22;63461;51.416;6.758;2023-11-18T11:54:11;8.60;99.90
74901;DHT22;63461;51.416;6.758;2023-11-18T11:56:50;8.60;99.90
74901;DHT22;63461;51.416;6.758;2023-11-18T12:02:21;8.50;99.90
74901;DHT22;63461;51.416;6.758;2023-11-18T12:05:01;8.60;99.90
74901;DHT22;63461;51.416;6.758;2023-11-18T12:07:40;8.60;99.90
74901;DHT22;63461;51.416;6.758;2023-11-18T12:10:08;8.50;99.90
74901;DHT22;63461;51.416;6.758;2023-11-18T12:12:41;8.60;99.90
74901;DHT22;63461;51.416;6.758;2023-11-18T12:15:08;8.60;99.90
74901;DHT22;63461;51.416;6.758;2023-11-18T12:20:39;8.60;99.90
74901;DHT22;63461;51.416;6.758;2023-11-18T12:23:08;8.70;99.90
74901;DHT22;63461;51.416;6.758;2023-11-18T12:25:41;8.50;99.90
74901;DHT22;63461;51.416;6.758;2023-11-18T12:28:14;8.60;99.90
74901;DHT22;63461;51.416;6.758;2023-11-18T12:30:45;8.60;99.90
74901;DHT22;63461;51.416;6.758;2023-11-18T12:33:23;8.60;99.90
74901;DHT22;63461;51.416;6.758;2023-11-18T12:39:14;8.60;99.90
74901;DHT22;63461;51.416;6.758;2023-11-18T12:42:02;8.60;99.90
74901;DHT22;63461;51.416;6.758;2023-11-18T12:45:05;8.60;99.90
74901;DHT22;63461;51.416;6.758;2023-11-18T12:47:42;8.60;99.90
74901;DHT22;63461;51.416;6.758;2023-11-18T12:50:11;8.60;99.90
74901;DHT22;63461;51.416;6.758;2023-11-18T12:53:02;8.60;99.90
74901;DHT22;63461;51.416;6.758;2023-11-18T12:56:17;8.60;99.90
74901;DHT22;63461;51.416;6.758;2023-11-18T12:58:51;8.70;99.90
74901;DHT22;63461;51.416;6.758;2023-11-18T13:01:25;8.70;99.90
74901;DHT22;63461;51.416;6.758;2023-11-18T13:03:53;8.70;99.90
74901;DHT22;63461;51.416;6.758;2023-11-18T13:06:19;8.80;99.90
74901;DHT22;63461;51.416;6.758;2023-11-18T13:08:45;8.70;99.90
74901;DHT22;63461;51.416;6.758;2023-11-18T13:11:11;8.70;99.90
74901;DHT22;63461;51.416;6.758;2023-11-18T13:13:42;8.70;99.90
74901;DHT22;63461;51.416;6.758;2023-11-18T13:16:09;8.80;99.90
74901;DHT22;63461;51.416;6.758;2023-11-18T13:18:44;8.80;99.90
74901;DHT22;63461;51.416;6.758;2023-11-18T13:21:19;8.80;99.90
74901;DHT22;63461;51.416;6.758;2023-11-18T13:24:06;8.90;99.90
74901;DHT22;63461;51.416;6.758;2023-11-18T13:26:38;8.90;99.90
74901;DHT22;63461;51.416;6.758;2023-11-18T13:29:06;8.90;99.90
74901;DHT22;63461;51.416;6.758;2023-11-18T13:31:33;8.90;99.90
74901;DHT22;63461;51.416;6.758;2023-11-18T13:33:59;8.90;99.90
74901;DHT22;63461;51.416;6.758;2023-11-18T13:36:29;8.90;99.90
74901;DHT22;63461;51.416;6.758;2023-11-18T13:38:56;8.90;99.90
74901;DHT22;63461;51.416;6.758;2023-11-18T13:41:29;8.90;99.90
74901;DHT22;63461;51.416;6.758;2023-11-18T13:43:56;8.90;99.90
74901;DHT22;63461;51.416;6.758;2023-11-18T13:46:24;9.00;99.90
74901;DHT22;63461;51.416;6.758;2023-11-18T13:53:42;8.90;99.90
74901;DHT22;63461;51.416;6.758;2023-11-18T14:03:35;8.90;99.90
74901;DHT22;63461;51.416;6.758;2023-11-18T14:18:44;9.00;99.90
74901;DHT22;63461;51.416;6.758;2023-11-18T14:22:25;9.00;99.90
74901;DHT22;63461;51.416;6.758;2023-11-18T15:04:11;8.90;99.90
74901;DHT22;63461;51.416;6.758;2023-11-18T15:06:40;8.70;99.90
74901;DHT22;63461;51.416;6.758;2023-11-18T15:17:59;8.80;99.90
74901;DHT22;63461;51.416;6.758;2023-11-18T15:21:30;8.60;99.90
74901;DHT22;63461;51.416;6.758;2023-11-18T15:24:51;8.70;99.90
74901;DHT22;63461;51.416;6.758;2023-11-18T15:27:58;8.70;99.90
74901;DHT22;63461;51.416;6.758;2023-11-18T15:31:13;8.70;99.90
74901;DHT22;63461;51.416;6.758;2023-11-18T15:40:59;8.60;99.90
74901;DHT22;63461;51.416;6.758;2023-11-18T15:44:00;8.70;99.90
74901;DHT22;63461;51.416;6.758;2023-11-18T16:28:01;8.50;99.90
74901;DHT22;63461;51.416;6.758;2023-11-18T16:30:48;8.60;99.90
74901;DHT22;63461;51.416;6.758;2023-11-18T16:34:00;8.60;99.90
74901;DHT22;63461;51.416;6.758;2023-11-18T16:37:55;8.50;99.90
74901;DHT22;63461;51.416;6.758;2023-11-18T16:40:50;8.50;99.90
74901;DHT22;63461;51.416;6.758;2023-11-18T16:44:25;8.60;99.90
74901;DHT22;63461;51.416;6.758;2023-11-18T16:59:36;8.50;99.90
74901;DHT22;63461;51.416;6.758;2023-11-18T17:02:23;8.60;99.90
74901;DHT22;63461;51.416;6.758;2023-11-18T17:41:55;8.50;99.90
74901;DHT22;63461;51.416;6.758;2023-11-18T17:44:48;8.60;99.90
74901;DHT22;63461;51.416;6.758;2023-11-18T17:48:00;8.60;99.90
74901;DHT22;63461;51.416;6.758;2023-11-18T17:50:32;8.60;99.90
74901;DHT22;63461;51.416;6.758;2023-11-18T17:57:14;8.60;99.90
74901;DHT22;63461;51.416;6.758;2023-11-18T18:03:51;8.60;99.90
74901;DHT22;63461;51.416;6.758;2023-11-18T18:06:21;8.60;99.90
74901;DHT22;63461;51.416;6.758;2023-11-18T18:08:49;8.60;99.90
74901;DHT22;63461;51.416;6.758;2023-11-18T18:11:38;8.70;99.90
74901;DHT22;63461;51.416;6.758;2023-11-18T18:14:55;8.60;99.90
74901;DHT22;63461;51.416;6.758;2023-11-18T18:21:57;8.70;99.90
74901;DHT22;63461;51.416;6.758;2023-11-18T18:24:25;8.60;99.90
74901;DHT22;63461;51.416;6.758;2023-11-18T18:27:49;8.60;99.90
74901;DHT22;63461;51.416;6.758;2023-11-18T18:30:49;8.80;99.90
74901;DHT22;63461;51.416;6.758;2023-11-18T18:33:18;8.70;99.90
74901;DHT22;63461;51.416;6.758;2023-11-18T18:40:14;8.70;99.90
74901;DHT22;63461;51.416;6.758;2023-11-18T19:23:28;8.80;99.90
74901;DHT22;63461;51.416;6.758;2023-11-18T19:26:38;8.90;99.90
74901;DHT22;63461;51.416;6.758;2023-11-18T19:29:46;8.90;99.90
74901;DHT22;63461;51.416;6.758;2023-11-18T19:32:13;9.00;99.90
74901;DHT22;63461;51.416;6.758;2023-11-18T19:39:30;9.00;99.90
74901;DHT22;63461;51.416;6.758;2023-11-18T19:42:00;9.00;99.90
74901;DHT22;63461;51.416;6.758;2023-11-18T19:44:49;9.10;99.90
74901;DHT22;63461;51.416;6.758;2023-11-18T19:47:47;9.00;99.90
74901;DHT22;63461;51.416;6.758;2023-11-18T19:50:24;9.10;99.90
74901;DHT22;63461;51.416;6.758;2023-11-18T19:52:50;9.10;99.90
74901;DHT22;63461;51.416;6.758;2023-11-18T19:55:18;9.20;99.90
74901;DHT22;63461;51.416;6.758;2023-11-18T19:57:44;9.20;99.90
74901;DHT22;63461;51.416;6.758;2023-11-18T20:00:10;9.20;99.90
74901;DHT22;63461;51.416;6.758;2023-11-18T20:02:40;9.20;99.90
74901;DHT22;63461;51.416;6.758;2023-11-18T20:05:06;9.20;99.90
74901;DHT22;63461;51.416;6.758;2023-11-18T20:07:59;9.20;99.90
74901;DHT22;63461;51.416;6.758;2023-11-18T20:19:54;9.30;99.90
74901;DHT22;63461;51.416;6.758;2023-11-18T20:37:23;9.40;99.90
74901;DHT22;63461;51.416;6.758;2023-11-18T20:43:02;9.40;99.90
74901;DHT22;63461;51.416;6.758;2023-11-18T20:46:15;9.40;99.90
74901;DHT22;63461;51.416;6.758;2023-11-18T21:32:26;9.60;99.90
74901;DHT22;63461;51.416;6.758;2023-11-18T21:40:14;9.50;99.90
74901;DHT22;63461;51.416;6.758;2023-11-18T22:16:14;9.70;99.90
74901;DHT22;63461;51.416;6.758;2023-11-18T22:19:00;9.80;99.90
74901;DHT22;63461;51.416;6.758;2023-11-18T22:22:04;9.80;99.90
74901;DHT22;63461;51.416;6.758;2023-11-18T22:24:35;9.80;99.90
74901;DHT22;63461;51.416;6.758;2023-11-18T22:27:01;9.80;99.90
74901;DHT22;63461;51.416;6.758;2023-11-18T22:29:32;9.80;99.90
74901;DHT22;63461;51.416;6.758;2023-11-18T22:53:44;9.90;99.90
74901;DHT22;63461;51.416;6.758;2023-11-18T22:56:49;9.90;99.90
74901;DHT22;63461;51.416;6.758;2023-11-18T23:00:06;9.90;99.90
74901;DHT22;63461;51.416;6.758;2023-11-18T23:02:58;10.00;99.90
74901;DHT22;63461;51.416;6.758;2023-11-18T23:05:30;10.00;99.90
74901;DHT22;63461;51.416;6.758;2023-11-18T23:08:03;10.00;99.90
74901;DHT22;63461;51.416;6.758;2023-11-18T23:10:44;10.00;99.90
74901;DHT22;63461;51.416;6.758;2023-11-18T23:25:19;10.10;99.90
74901;DHT22;63461;51.416;6.758;2023-11-18T23:28:16;10.10;99.90
74901;DHT22;63461;51.416;6.758;2023-11-18T23:35:53;10.10;99.90
74901;DHT22;63461;51.416;6.758;2023-11-18T23:39:18;10.10;99.90
74901;DHT22;63461;51.416;6.758;2023-11-18T23:43:01;10.20;99.90
74901;DHT22;63461;51.416;6.758;2023-11-18T23:57:04;10.40;99.90
74901;DHT22;63461;51.416;6.758;2023-11-18T23:59:42;10.40;99.90
